Tone Maru — JD3746 — position and weather

sailwx.info

Track history (hours):
 
Tides and Currents Weather Stations Pressure Air Temp Water Temp Dewpoint Dewpoint Depression Visibility Wind Speed Wind Dir Waves Ship Positions

Tone Maru

Last reported at 2017-Nov-19 23:06 UTC. Time now 2017-Nov-20 00:27 UTC.
Position N 35°31' E 140°02'.

Length 33 m; draft 3 m.

Type: Tug. MMSI: 431005759.

Date/timePositionNaut miles runAvg speedWind from/ knotsBaromVisibWave heightAir tempDewpointWater temp
2017-Nov-19 23:06N 35°31' E 140°02'110.3
2017-Nov-19 22:59N 35°32' E 140°03'6 0.3
2017-Nov-19 05:06N 35°30' E 139°56'0 1.6
2017-Nov-19 04:55N 35°30' E 139°56'0 0.2
2017-Nov-19 04:27N 35°30' E 139°56'4 6.5
2017-Nov-19 03:52N 35°32' E 139°60'  
2017-Nov-12 23:05N 35°27' E 139°58'0 0.9
2017-Nov-12 22:55N 35°27' E 139°58'2 4.8
2017-Nov-12 22:26N 35°30' E 139°57'2 0.0
2017-Nov-11 06:58N 35°28' E 139°58'1 1.3
2017-Nov-11 06:24N 35°29' E 139°58'2 0.2
2017-Nov-10 23:18N 35°28' E 139°60'0 0.2
2017-Nov-10 22:17N 35°28' E 139°60'2 5.2
2017-Nov-10 21:54N 35°30' E 140°00'1 0.0
2017-Nov-10 00:03N 35°29' E 139°60'0 3.8
2017-Nov-09 23:55N 35°29' E 140°00'0 0.2
2017-Nov-09 23:21N 35°29' E 140°00'  
Track history (hours):
 
Tides and Currents Weather Stations Pressure Air Temp Water Temp Dewpoint Dewpoint Depression Visibility Wind Speed Wind Dir Waves Ship Positions

Tone Maru

Last reported at 2017-Nov-19 23:06 UTC. Time now 2017-Nov-20 00:27 UTC.
Position N 35°31' E 140°02'.

Length 33 m; draft 3 m.

Type: Tug. MMSI: 431005759.

Date/timePositionNaut miles runAvg speedWind from/ knotsBaromVisibWave heightAir tempDewpointWater temp
2017-Nov-19 23:06N 35°31' E 140°02'110.3
2017-Nov-19 22:59N 35°32' E 140°03'6 0.3
2017-Nov-19 05:06N 35°30' E 139°56'0 1.6
2017-Nov-19 04:55N 35°30' E 139°56'0 0.2
2017-Nov-19 04:27N 35°30' E 139°56'4 6.5
2017-Nov-19 03:52N 35°32' E 139°60'  
2017-Nov-12 23:05N 35°27' E 139°58'0 0.9
2017-Nov-12 22:55N 35°27' E 139°58'2 4.8
2017-Nov-12 22:26N 35°30' E 139°57'2 0.0
2017-Nov-11 06:58N 35°28' E 139°58'1 1.3
2017-Nov-11 06:24N 35°29' E 139°58'2 0.2
2017-Nov-10 23:18N 35°28' E 139°60'0 0.2
2017-Nov-10 22:17N 35°28' E 139°60'2 5.2
2017-Nov-10 21:54N 35°30' E 140°00'1 0.0
2017-Nov-10 00:03N 35°29' E 139°60'0 3.8
2017-Nov-09 23:55N 35°29' E 140°00'0 0.2
2017-Nov-09 23:21N 35°29' E 140°00'  

Dump ship's entire track history